Time;durP1;ratioP1;P1;durP2;ratioP2;P2;SDS_P1;SDS_P2;PMS_P1;PMS_P2;Temp;Humidity;BMP_temperature;BMP_pressure;BME280_temperature;BME280_humidity;BME280_pressure;Samples;Min_cycle;Max_cycle;Signal;HPM_P1;HPM_P2
2023/12/17 00:01:22;;;;;;;605.58;323.13;;;;;;;0.61;100.00;100275.44;5021296;28;20317;-54
2023/12/17 00:03:48;;;;;;;477.80;317.63;;;;;;;0.68;100.00;100282.81;5023127;28;20022;-57
2023/12/17 00:06:14;;;;;;;537.28;325.40;;;;;;;0.68;100.00;100272.56;5022260;28;20511;-55
2023/12/17 00:08:39;;;;;;;503.00;318.17;;;;;;;0.75;100.00;100276.44;5019611;28;20057;-54
2023/12/17 00:11:05;;;;;;;531.10;325.35;;;;;;;0.76;100.00;100263.75;5020529;28;20049;-54
2023/12/17 00:13:30;;;;;;;728.38;340.55;;;;;;;0.82;100.00;100267.53;5022094;28;20508;-54
2023/12/17 00:15:56;;;;;;;539.38;335.85;;;;;;;0.75;100.00;100269.63;5003997;28;20056;-54
2023/12/17 00:18:22;;;;;;;573.45;333.83;;;;;;;0.75;100.00;100264.50;5021341;28;20366;-55
2023/12/17 00:20:47;;;;;;;531.50;330.83;;;;;;;0.56;100.00;100269.97;5021289;28;20875;-55
2023/12/17 00:23:12;;;;;;;447.63;328.35;;;;;;;0.56;100.00;100264.84;5022827;28;20708;-54
2023/12/17 00:25:38;;;;;;;449.65;327.02;;;;;;;0.54;100.00;100263.84;5020605;28;20037;-54
2023/12/17 00:28:03;;;;;;;531.03;333.50;;;;;;;0.49;100.00;100276.31;5021177;28;20511;-53
2023/12/17 00:30:28;;;;;;;543.03;337.45;;;;;;;0.34;100.00;100268.38;5019362;28;20404;-56
2023/12/17 00:32:54;;;;;;;464.55;332.58;;;;;;;0.29;100.00;100276.50;5021783;28;20128;-56
2023/12/17 00:35:20;;;;;;;481.52;327.70;;;;;;;0.06;100.00;100286.78;5023846;28;20112;-51
2023/12/17 00:37:45;;;;;;;458.10;330.60;;;;;;;0.05;100.00;100287.56;5020048;28;20091;-53
2023/12/17 00:40:11;;;;;;;466.88;331.38;;;;;;;0.09;100.00;100287.03;5021041;28;20056;-53
2023/12/17 00:42:36;;;;;;;650.55;344.17;;;;;;;0.10;100.00;100283.69;5021144;28;20029;-53
2023/12/17 00:45:02;;;;;;;471.67;315.13;;;;;;;0.12;100.00;100286.38;5028732;28;20045;-53
2023/12/17 00:47:27;;;;;;;563.20;324.10;;;;;;;0.09;100.00;100279.34;5023400;28;20077;-53
2023/12/17 00:49:53;;;;;;;474.10;318.40;;;;;;;0.09;100.00;100274.25;5024770;28;20021;-52
2023/12/17 00:52:20;;;;;;;423.13;313.60;;;;;;;0.11;100.00;100272.66;5024702;28;20064;-52
2023/12/17 00:54:45;;;;;;;481.98;319.13;;;;;;;0.09;100.00;100264.00;5021868;28;20587;-51
2023/12/17 00:57:11;;;;;;;443.35;316.23;;;;;;;0.05;100.00;100269.66;5023773;28;20159;-54
2023/12/17 00:59:36;;;;;;;542.60;315.65;;;;;;;-0.06;100.00;100260.28;5022628;28;20033;-52
2023/12/17 01:02:01;;;;;;;455.17;319.17;;;;;;;-0.18;100.00;100261.09;5023721;28;20097;-52
2023/12/17 01:04:27;;;;;;;639.35;335.13;;;;;;;-0.29;100.00;100261.97;5023812;28;20055;-53
2023/12/17 01:06:52;;;;;;;447.25;311.50;;;;;;;-0.38;100.00;100259.56;5023898;28;20041;-53
2023/12/17 01:09:18;;;;;;;435.92;319.40;;;;;;;-0.40;100.00;100259.47;5024341;28;20033;-53
2023/12/17 01:11:43;;;;;;;459.67;319.95;;;;;;;-0.47;100.00;100266.53;5022834;28;20042;-53
2023/12/17 01:14:09;;;;;;;420.48;318.10;;;;;;;-0.50;100.00;100276.53;5024805;28;20037;-53
2023/12/17 01:16:34;;;;;;;586.08;331.15;;;;;;;-0.55;100.00;100263.41;5022818;28;20430;-53
2023/12/17 01:18:59;;;;;;;547.03;331.05;;;;;;;-0.56;100.00;100270.16;5023111;28;20029;-52
2023/12/17 01:21:25;;;;;;;457.38;328.30;;;;;;;-0.53;100.00;100274.63;5024216;28;20053;-52
2023/12/17 01:23:50;;;;;;;436.13;327.45;;;;;;;-0.58;100.00;100269.16;5023289;28;20503;-52
2023/12/17 01:26:20;;;;;;;452.20;328.85;;;;;;;-0.64;100.00;100288.25;5024784;28;20440;-55
2023/12/17 01:28:46;;;;;;;425.80;322.40;;;;;;;-0.79;100.00;100284.59;5021199;28;20119;-52
2023/12/17 01:31:12;;;;;;;446.27;317.77;;;;;;;-0.84;100.00;100280.78;5021169;28;20516;-53
2023/12/17 01:33:37;;;;;;;572.13;282.30;;;;;;;-0.85;100.00;100283.22;5020500;28;20040;-53
2023/12/17 01:36:03;;;;;;;412.45;261.42;;;;;;;-0.86;100.00;100277.19;5022741;28;20072;-53
2023/12/17 01:38:28;;;;;;;463.45;274.63;;;;;;;-0.84;100.00;100270.56;5022989;28;20028;-56
2023/12/17 01:40:54;;;;;;;403.15;263.67;;;;;;;-0.84;100.00;100269.66;5021719;28;20378;-53
2023/12/17 01:43:19;;;;;;;386.10;271.23;;;;;;;-0.85;100.00;100278.09;5024726;28;20032;-53
2023/12/17 01:45:44;;;;;;;423.13;259.38;;;;;;;-0.93;100.00;100273.28;5022932;28;20409;-53
2023/12/17 01:48:11;;;;;;;400.95;273.70;;;;;;;-0.92;100.00;100287.81;5023395;28;20397;-53
2023/12/17 01:50:37;;;;;;;466.98;278.40;;;;;;;-0.95;100.00;100285.06;5023709;28;20037;-53
2023/12/17 01:53:02;;;;;;;420.40;284.13;;;;;;;-1.00;100.00;100278.66;5022314;28;20032;-53
2023/12/17 01:55:28;;;;;;;483.35;287.58;;;;;;;-0.93;100.00;100280.03;5023502;28;20033;-52
2023/12/17 01:57:54;;;;;;;422.20;269.45;;;;;;;-0.90;100.00;100287.94;5023782;28;20029;-52
2023/12/17 02:00:19;;;;;;;421.05;275.90;;;;;;;-0.83;100.00;100292.78;5023278;28;20047;-53
2023/12/17 02:02:46;;;;;;;377.98;276.60;;;;;;;-0.81;100.00;100286.13;5022152;28;21652;-51
2023/12/17 02:05:12;;;;;;;369.00;249.10;;;;;;;-0.80;100.00;100299.81;5021927;28;20053;-54
2023/12/17 02:07:40;;;;;;;610.13;272.60;;;;;;;-0.88;100.00;100299.22;5020760;28;20433;-54
2023/12/17 02:10:06;;;;;;;423.65;282.40;;;;;;;-0.96;100.00;100293.47;5023088;28;20040;-55
2023/12/17 02:12:31;;;;;;;555.72;278.45;;;;;;;-0.99;100.00;100290.69;5022486;28;20065;-54
2023/12/17 02:14:57;;;;;;;505.83;280.77;;;;;;;-1.00;100.00;100291.44;5024304;28;20149;-53
2023/12/17 02:17:30;;;;;;;351.35;250.98;;;;;;;-0.94;100.00;100284.28;5022452;28;20678;-54
2023/12/17 02:19:56;;;;;;;415.88;254.90;;;;;;;-0.96;100.00;100290.91;5025832;28;20040;-54
2023/12/17 02:22:25;;;;;;;407.95;260.02;;;;;;;-0.92;100.00;100280.16;5002515;28;20033;-53
2023/12/17 02:24:54;;;;;;;390.25;275.92;;;;;;;-0.90;100.00;100282.84;5025631;28;20040;-54
2023/12/17 02:27:22;;;;;;;416.10;274.67;;;;;;;-0.88;100.00;100270.19;5022400;28;20029;-53
2023/12/17 02:29:48;;;;;;;401.48;278.58;;;;;;;-0.88;100.00;100262.53;5021235;28;20112;-53
2023/12/17 02:32:14;;;;;;;376.88;268.10;;;;;;;-0.88;100.00;100262.53;5022235;28;20037;-54
2023/12/17 02:34:40;;;;;;;614.90;291.98;;;;;;;-0.96;100.00;100260.25;5020851;28;20033;-53
2023/12/17 02:37:05;;;;;;;417.23;275.95;;;;;;;-1.01;100.00;100259.00;5023269;28;20041;-53
2023/12/17 02:39:30;;;;;;;446.60;275.38;;;;;;;-1.03;100.00;100268.22;5021941;28;20408;-53
2023/12/17 02:41:57;;;;;;;446.10;284.52;;;;;;;-1.03;100.00;100263.09;5022119;28;20417;-53
2023/12/17 02:44:23;;;;;;;401.33;285.20;;;;;;;-1.05;100.00;100259.53;5024191;28;20095;-54
2023/12/17 02:46:48;;;;;;;396.83;282.40;;;;;;;-1.09;100.00;100265.16;5021786;28;20046;-54
2023/12/17 02:49:13;;;;;;;457.10;287.05;;;;;;;-1.14;100.00;100267.34;5023835;28;20061;-52
2023/12/17 02:51:39;;;;;;;573.08;306.73;;;;;;;-1.13;100.00;100265.69;5021179;28;20053;-54
2023/12/17 02:54:04;;;;;;;417.67;284.67;;;;;;;-1.16;100.00;100255.22;5023601;28;20040;-52
2023/12/17 02:56:29;;;;;;;459.00;296.30;;;;;;;-1.26;100.00;100249.34;5021391;28;20039;-52
2023/12/17 02:58:55;;;;;;;424.50;303.35;;;;;;;-1.24;100.00;100250.38;5021724;28;20544;-53
2023/12/17 03:01:20;;;;;;;407.48;302.33;;;;;;;-1.20;100.00;100249.88;5021682;28;20033;-54
2023/12/17 03:03:45;;;;;;;624.22;324.48;;;;;;;-1.22;100.00;100236.06;5019928;28;20045;-55
2023/12/17 03:06:11;;;;;;;410.15;285.90;;;;;;;-1.16;100.00;100232.25;5023156;28;20103;-53
2023/12/17 03:08:38;;;;;;;539.60;292.73;;;;;;;-1.15;100.00;100242.56;5020998;28;20053;-54
2023/12/17 03:11:03;;;;;;;507.08;297.52;;;;;;;-1.15;100.00;100241.69;5019818;28;20050;-53
2023/12/17 03:13:30;;;;;;;422.45;298.98;;;;;;;-1.19;100.00;100243.06;5021243;28;20030;-53
2023/12/17 03:15:55;;;;;;;466.23;302.23;;;;;;;-1.23;100.00;100238.53;5020795;28;20148;-53
2023/12/17 03:18:21;;;;;;;461.65;305.77;;;;;;;-1.30;100.00;100237.13;5024001;28;20494;-53
2023/12/17 03:20:46;;;;;;;561.60;314.45;;;;;;;-1.33;100.00;100221.56;5021897;28;20472;-52
2023/12/17 03:23:11;;;;;;;399.65;304.17;;;;;;;-1.34;100.00;100217.25;5023770;28;20113;-54
2023/12/17 03:25:37;;;;;;;584.85;319.45;;;;;;;-1.31;100.00;100208.16;5020050;28;20854;-53
2023/12/17 03:28:02;;;;;;;424.60;289.60;;;;;;;-1.24;100.00;100200.97;5003951;28;20059;-53
2023/12/17 03:30:27;;;;;;;409.67;288.15;;;;;;;-1.23;100.00;100203.66;5024699;28;20111;-52
2023/12/17 03:32:53;;;;;;;484.83;296.98;;;;;;;-1.24;100.00;100217.19;5018669;28;20030;-53
2023/12/17 03:35:18;;;;;;;406.35;283.58;;;;;;;-1.30;100.00;100214.13;5021380;28;20025;-53
2023/12/17 03:37:43;;;;;;;458.55;279.17;;;;;;;-1.32;100.00;100208.03;5020776;28;20017;-53
2023/12/17 03:40:09;;;;;;;465.02;289.88;;;;;;;-1.34;100.00;100209.56;5021891;28;20033;-54
2023/12/17 03:42:34;;;;;;;455.58;289.45;;;;;;;-1.40;100.00;100212.53;5021746;28;20099;-53
2023/12/17 03:44:59;;;;;;;455.27;287.35;;;;;;;-1.45;100.00;100212.13;5021184;28;20021;-53
2023/12/17 03:47:25;;;;;;;435.75;293.88;;;;;;;-1.48;100.00;100199.13;5020595;28;20047;-52
2023/12/17 03:49:50;;;;;;;568.65;305.52;;;;;;;-1.43;100.00;100199.50;5020792;28;20065;-54
2023/12/17 03:52:16;;;;;;;358.42;288.85;;;;;;;-1.47;100.00;100216.25;5020602;28;20041;-52
2023/12/17 03:54:41;;;;;;;628.15;323.95;;;;;;;-1.49;100.00;100212.66;5019272;28;20036;-53
2023/12/17 03:57:07;;;;;;;418.52;320.25;;;;;;;-1.51;100.00;100221.88;5021232;28;20555;-53
2023/12/17 03:59:32;;;;;;;433.67;323.98;;;;;;;-1.56;100.00;100218.03;5021690;28;20068;-54
2023/12/17 04:02:01;;;;;;;489.45;324.73;;;;;;;-1.56;100.00;100223.13;5019988;28;20034;-52
2023/12/17 04:04:27;;;;;;;408.75;311.05;;;;;;;-1.54;100.00;100224.16;5021732;28;20021;-54
2023/12/17 04:06:52;;;;;;;438.08;320.08;;;;;;;-1.57;100.00;100227.38;5019791;28;20037;-54
2023/12/17 04:09:19;;;;;;;475.02;319.23;;;;;;;-1.54;100.00;100236.03;5021228;28;20025;-53
2023/12/17 04:11:44;;;;;;;563.22;327.10;;;;;;;-1.60;100.00;100232.22;5021753;28;20053;-53
2023/12/17 04:14:09;;;;;;;420.17;314.83;;;;;;;-1.63;100.00;100231.09;5022575;28;20028;-54
2023/12/17 04:16:35;;;;;;;455.27;283.33;;;;;;;-1.65;100.00;100232.59;5023537;28;20092;-53
2023/12/17 04:19:00;;;;;;;485.92;305.75;;;;;;;-1.58;100.00;100243.47;5027177;28;20029;-52
2023/12/17 04:21:25;;;;;;;380.00;283.20;;;;;;;-1.55;100.00;100232.59;5022938;28;20029;-53
2023/12/17 04:23:52;;;;;;;616.08;304.95;;;;;;;-1.55;100.00;100230.03;5024117;28;20025;-54
2023/12/17 04:26:17;;;;;;;356.45;242.68;;;;;;;-1.53;100.00;100225.94;5025452;28;20119;-54
2023/12/17 04:28:43;;;;;;;532.20;265.85;;;;;;;-1.55;100.00;100230.03;5022483;28;20108;-51
2023/12/17 04:31:08;;;;;;;384.92;272.15;;;;;;;-1.56;100.00;100223.13;5021904;28;20315;-53
2023/12/17 04:33:33;;;;;;;362.73;266.77;;;;;;;-1.50;100.00;100220.19;5027108;28;20028;-53
2023/12/17 04:35:59;;;;;;;434.42;273.15;;;;;;;-1.50;100.00;100212.53;5024396;28;20044;-52
2023/12/17 04:38:24;;;;;;;401.40;278.08;;;;;;;-1.46;100.00;100212.91;5024331;28;20038;-52
2023/12/17 04:40:50;;;;;;;537.10;272.05;;;;;;;-1.34;100.00;100199.38;5021727;28;20041;-51
2023/12/17 04:43:16;;;;;;;370.25;253.27;;;;;;;-1.35;100.00;100207.75;5025372;28;20032;-52
2023/12/17 04:45:41;;;;;;;575.28;277.55;;;;;;;-1.42;100.00;100201.28;5022678;28;20038;-52
2023/12/17 04:48:06;;;;;;;402.40;274.23;;;;;;;-1.44;100.00;100196.03;5024335;28;20032;-53
2023/12/17 04:50:32;;;;;;;379.20;272.83;;;;;;;-1.48;100.00;100208.47;5025718;28;20389;-52
2023/12/17 04:52:57;;;;;;;424.88;274.65;;;;;;;-1.54;100.00;100213.94;5022784;28;20350;-53
2023/12/17 04:55:23;;;;;;;381.48;281.80;;;;;;;-1.60;100.00;100211.78;5026220;28;20553;-53
2023/12/17 04:57:48;;;;;;;541.40;293.85;;;;;;;-1.62;100.00;100217.53;5021580;28;20022;-53
2023/12/17 05:00:14;;;;;;;438.27;297.75;;;;;;;-1.71;100.00;100218.56;5023116;28;20941;-52
2023/12/17 05:02:39;;;;;;;442.60;304.35;;;;;;;-1.72;100.00;100221.91;5024423;28;20291;-52
2023/12/17 05:05:05;;;;;;;440.33;312.55;;;;;;;-1.76;100.00;100224.97;5023711;28;20030;-52
2023/12/17 05:07:30;;;;;;;474.20;321.50;;;;;;;-1.80;100.00;100224.56;5007934;28;20049;-51
2023/12/17 05:09:57;;;;;;;570.85;322.40;;;;;;;-1.85;100.00;100219.97;5024331;28;20132;-53
2023/12/17 05:12:22;;;;;;;426.33;320.50;;;;;;;-1.84;100.00;100228.53;5022835;28;20044;-51
2023/12/17 05:14:47;;;;;;;549.30;322.67;;;;;;;-1.85;100.00;100219.13;5024568;28;20089;-52
2023/12/17 05:17:13;;;;;;;407.98;318.50;;;;;;;-1.85;100.00;100214.88;5024440;28;20041;-53
2023/12/17 05:19:38;;;;;;;420.00;298.73;;;;;;;-1.85;100.00;100214.00;5021100;28;20053;-52
2023/12/17 05:22:04;;;;;;;451.00;303.85;;;;;;;-1.84;100.00;100203.03;5026736;28;20037;-52
2023/12/17 05:24:29;;;;;;;414.38;290.95;;;;;;;-1.81;100.00;100205.84;5024665;28;20100;-52
2023/12/17 05:26:54;;;;;;;589.40;311.73;;;;;;;-1.79;100.00;100211.06;5022335;28;20076;-52
2023/12/17 05:29:20;;;;;;;426.05;309.15;;;;;;;-1.81;100.00;100210.03;5023192;28;20132;-51
2023/12/17 05:31:45;;;;;;;570.72;321.70;;;;;;;-1.87;100.00;100212.97;5022398;28;20068;-53
2023/12/17 05:34:10;;;;;;;410.00;307.48;;;;;;;-1.84;100.00;100201.38;5023400;28;20033;-55
2023/12/17 05:36:36;;;;;;;435.40;310.50;;;;;;;-1.82;100.00;100206.59;5023015;28;20111;-53
2023/12/17 05:39:01;;;;;;;468.88;313.67;;;;;;;-1.77;100.00;100207.88;5020921;28;20383;-53
2023/12/17 05:41:26;;;;;;;436.35;310.90;;;;;;;-1.71;100.00;100207.47;5023881;28;20079;-53
2023/12/17 05:43:52;;;;;;;590.95;320.58;;;;;;;-1.71;100.00;100212.56;5022112;28;20055;-52
2023/12/17 05:46:17;;;;;;;381.40;309.45;;;;;;;-1.76;100.00;100211.31;5024701;28;20041;-52
2023/12/17 05:48:42;;;;;;;464.55;320.45;;;;;;;-1.73;100.00;100203.91;5021001;28;20064;-53
2023/12/17 05:51:08;;;;;;;425.25;316.13;;;;;;;-1.72;100.00;100203.13;5023605;28;20137;-53
2023/12/17 05:53:33;;;;;;;411.58;317.30;;;;;;;-1.74;100.00;100208.09;5025135;28;20104;-53
2023/12/17 05:56:00;;;;;;;433.77;271.52;;;;;;;-1.75;100.00;100203.78;5022684;28;21874;-52
2023/12/17 05:58:25;;;;;;;378.77;274.88;;;;;;;-1.78;100.00;100203.53;5023083;28;20024;-53
2023/12/17 06:00:50;;;;;;;451.00;275.75;;;;;;;-1.83;100.00;100203.16;5019349;28;20293;-53
2023/12/17 06:03:16;;;;;;;397.13;279.20;;;;;;;-1.86;100.00;100202.91;5023652;28;20074;-53
2023/12/17 06:05:41;;;;;;;432.85;287.42;;;;;;;-1.91;100.00;100208.38;5022000;28;20044;-54
2023/12/17 06:08:06;;;;;;;385.38;285.70;;;;;;;-1.90;100.00;100203.41;5021379;28;20325;-53
2023/12/17 06:10:32;;;;;;;391.73;284.50;;;;;;;-1.89;100.00;100199.22;5023682;28;20242;-53
2023/12/17 06:12:57;;;;;;;506.17;292.17;;;;;;;-1.89;100.00;100183.91;5022867;28;20036;-53
2023/12/17 06:15:22;;;;;;;382.10;282.95;;;;;;;-1.88;100.00;100188.25;5023221;28;20029;-54
2023/12/17 06:17:48;;;;;;;563.85;296.45;;;;;;;-1.90;100.00;100183.00;5020372;28;20141;-53
2023/12/17 06:20:13;;;;;;;416.45;290.33;;;;;;;-1.85;100.00;100183.41;5023268;28;20017;-54
2023/12/17 06:22:38;;;;;;;393.23;282.33;;;;;;;-1.91;100.00;100187.97;5025741;28;20021;-53
2023/12/17 06:25:04;;;;;;;466.80;288.25;;;;;;;-1.97;100.00;100189.25;5022355;28;20389;-55
2023/12/17 06:27:30;;;;;;;411.10;287.02;;;;;;;-1.97;100.00;100199.47;5021896;28;20022;-55
2023/12/17 06:29:55;;;;;;;557.30;301.77;;;;;;;-1.97;100.00;100199.47;5019427;28;20472;-54
2023/12/17 06:32:21;;;;;;;415.88;292.17;;;;;;;-1.96;100.00;100200.38;5023118;28;20532;-53
2023/12/17 06:34:46;;;;;;;505.90;295.13;;;;;;;-1.98;100.00;100202.78;5020361;28;20024;-53
2023/12/17 06:37:12;;;;;;;404.80;288.60;;;;;;;-1.99;100.00;100202.66;5020551;28;20431;-53
2023/12/17 06:39:42;;;;;;;456.05;291.55;;;;;;;-1.96;100.00;100203.78;5019516;28;20082;-53
2023/12/17 06:42:11;;;;;;;379.08;282.27;;;;;;;-2.01;100.00;100206.75;5019610;28;20046;-53
2023/12/17 06:44:37;;;;;;;404.92;283.48;;;;;;;-2.05;100.00;100209.81;5023568;28;20036;-53
2023/12/17 06:47:03;;;;;;;454.38;284.10;;;;;;;-2.02;100.00;100200.75;5021774;28;20034;-53
2023/12/17 06:49:28;;;;;;;382.98;275.73;;;;;;;-2.04;100.00;100201.41;5023363;28;20033;-53
2023/12/17 06:51:53;;;;;;;502.13;280.80;;;;;;;-1.98;100.00;100202.78;5020128;28;20055;-54
2023/12/17 06:54:19;;;;;;;453.05;290.13;;;;;;;-1.99;100.00;100197.56;5022537;28;20052;-53
2023/12/17 06:56:44;;;;;;;379.33;285.30;;;;;;;-1.94;100.00;100208.16;5021881;28;20040;-52
2023/12/17 06:59:09;;;;;;;465.05;293.52;;;;;;;-1.99;100.00;100215.41;5021935;28;20082;-53
2023/12/17 07:01:35;;;;;;;433.35;263.98;;;;;;;-2.00;100.00;100213.63;5018636;28;20048;-54
2023/12/17 07:04:02;;;;;;;473.42;268.27;;;;;;;-2.01;100.00;100209.31;5019993;28;20177;-53
2023/12/17 07:06:27;;;;;;;383.00;266.52;;;;;;;-2.01;100.00;100210.19;5021330;28;20083;-53
2023/12/17 07:08:53;;;;;;;595.45;278.30;;;;;;;-1.98;100.00;100212.09;5020835;28;20053;-53
2023/12/17 07:11:18;;;;;;;369.33;273.67;;;;;;;-1.91;100.00;100214.41;5020236;28;20038;-54
2023/12/17 07:13:44;;;;;;;363.38;273.50;;;;;;;-1.83;100.00;100209.91;5023086;28;20059;-53
2023/12/17 07:16:21;;;;;;;453.35;279.25;;;;;;;-1.74;100.00;100217.44;5018111;28;20048;-54
2023/12/17 07:18:46;;;;;;;338.80;262.45;;;;;;;-1.65;100.00;100210.53;5021015;28;20021;-54
2023/12/17 07:21:11;;;;;;;404.10;266.90;;;;;;;-1.50;100.00;100209.97;5021199;28;20089;-55
2023/12/17 07:23:37;;;;;;;401.80;266.67;;;;;;;-1.46;100.00;100209.47;5022889;28;20394;-54
2023/12/17 07:26:02;;;;;;;567.08;276.35;;;;;;;-1.38;100.00;100218.63;5021287;28;20040;-52
2023/12/17 07:28:28;;;;;;;399.50;252.85;;;;;;;-1.38;100.00;100221.19;5022870;28;20016;-53
2023/12/17 07:30:53;;;;;;;480.65;258.25;;;;;;;-1.36;100.00;100219.66;5019970;28;20222;-53
2023/12/17 07:33:19;;;;;;;368.73;259.30;;;;;;;-1.15;100.00;100205.94;5024535;28;20144;-53
2023/12/17 07:35:44;;;;;;;387.63;250.95;;;;;;;-0.97;100.00;100204.81;5020462;28;20065;-54
2023/12/17 07:38:09;;;;;;;392.98;259.40;;;;;;;-0.89;100.00;100202.84;5021048;28;20079;-54
2023/12/17 07:40:35;;;;;;;371.35;260.48;;;;;;;-0.67;100.00;100207.97;5021347;28;20535;-53
2023/12/17 07:43:00;;;;;;;600.92;277.50;;;;;;;-0.60;100.00;100213.59;5019832;28;20057;-53
2023/12/17 07:45:25;;;;;;;402.63;269.50;;;;;;;-0.45;100.00;100204.50;5021250;28;20060;-53
2023/12/17 07:47:51;;;;;;;486.27;279.17;;;;;;;-0.58;100.00;100199.25;5021339;28;20477;-54
2023/12/17 07:50:16;;;;;;;429.92;274.65;;;;;;;-0.35;100.00;100195.88;5006035;28;20045;-54
2023/12/17 07:52:41;;;;;;;368.45;274.50;;;;;;;-0.35;100.00;100190.78;5027840;28;20039;-53
2023/12/17 07:55:07;;;;;;;403.92;272.05;;;;;;;-0.35;100.00;100195.88;5023058;28;20127;-54
2023/12/17 07:57:33;;;;;;;444.20;278.42;;;;;;;-0.37;100.00;100192.31;5025488;28;20053;-52
2023/12/17 07:59:58;;;;;;;516.85;282.05;;;;;;;-0.44;100.00;100200.31;5023401;28;20485;-54
2023/12/17 08:02:24;;;;;;;388.60;277.33;;;;;;;-0.55;100.00;100196.94;5026119;28;20040;-52
2023/12/17 08:04:51;;;;;;;440.48;279.63;;;;;;;-0.52;100.00;100204.81;5029249;28;20466;-53
2023/12/17 08:07:16;;;;;;;396.10;278.17;;;;;;;-0.51;100.00;100206.63;5027756;28;20041;-53
2023/12/17 08:09:41;;;;;;;405.02;278.52;;;;;;;-0.44;100.00;100206.28;5006490;28;20022;-53
2023/12/17 08:12:08;;;;;;;509.27;285.75;;;;;;;-0.24;100.00;100208.59;5026035;28;20049;-53
2023/12/17 08:14:33;;;;;;;434.30;279.88;;;;;;;-0.20;100.00;100211.50;5026606;28;20044;-52
2023/12/17 08:16:59;;;;;;;542.13;287.10;;;;;;;-0.20;100.00;100211.50;5024445;28;20041;-52
2023/12/17 08:19:24;;;;;;;497.85;288.63;;;;;;;-0.06;100.00;100210.00;5025708;28;20456;-52
2023/12/17 08:21:49;;;;;;;401.70;270.83;;;;;;;-0.11;100.00;100210.41;5024343;28;20061;-53
2023/12/17 08:24:15;;;;;;;406.80;272.15;;;;;;;0.00;100.00;100214.69;5027094;28;20767;-54
2023/12/17 08:26:41;;;;;;;462.55;282.23;;;;;;;0.11;100.00;100212.94;5028027;28;20033;-52
2023/12/17 08:29:06;;;;;;;549.47;295.98;;;;;;;0.17;100.00;100213.38;5026070;28;20053;-52
2023/12/17 08:31:31;;;;;;;421.88;290.50;;;;;;;0.26;100.00;100218.28;5025252;28;20190;-54
2023/12/17 08:33:57;;;;;;;534.88;303.67;;;;;;;0.35;100.00;100218.06;5026695;28;20063;-53
2023/12/17 08:36:22;;;;;;;438.85;298.52;;;;;;;0.45;100.00;100224.75;5027500;28;20041;-54
2023/12/17 08:38:48;;;;;;;392.60;292.77;;;;;;;0.50;100.00;100228.53;5027415;28;20014;-53
2023/12/17 08:41:13;;;;;;;464.98;295.15;;;;;;;0.63;100.00;100226.09;5025581;28;20040;-54
2023/12/17 08:43:38;;;;;;;411.27;279.40;;;;;;;0.90;100.00;100221.16;5027933;28;20033;-52
2023/12/17 08:46:04;;;;;;;491.48;291.92;;;;;;;0.95;100.00;100223.16;5027209;28;20509;-52
2023/12/17 08:48:29;;;;;;;484.05;291.35;;;;;;;0.95;100.00;100224.06;5027143;28;20136;-53
2023/12/17 08:50:55;;;;;;;490.98;294.50;;;;;;;1.01;100.00;100227.06;5025502;28;20119;-53
2023/12/17 08:53:22;;;;;;;452.73;288.33;;;;;;;1.09;100.00;100225.06;5027779;28;20436;-53
2023/12/17 08:55:49;;;;;;;474.52;300.83;;;;;;;1.19;100.00;100223.13;5026877;28;20041;-52
2023/12/17 08:58:14;;;;;;;424.00;295.23;;;;;;;1.26;100.00;100221.09;5025571;28;20404;-53
2023/12/17 09:00:39;;;;;;;552.20;311.38;;;;;;;1.29;100.00;100218.78;5022520;28;20030;-51
2023/12/17 09:03:05;;;;;;;607.28;311.88;;;;;;;1.39;100.00;100220.31;5025355;28;20058;-53
2023/12/17 09:05:31;;;;;;;452.80;287.60;;;;;;;1.51;100.00;100220.25;5025187;28;20116;-53
2023/12/17 09:07:56;;;;;;;498.48;294.05;;;;;;;1.67;100.00;100219.63;5025141;28;20079;-54
2023/12/17 09:10:23;;;;;;;485.98;280.13;;;;;;;1.85;100.00;100215.66;5028177;28;20041;-53
2023/12/17 09:12:49;;;;;;;424.67;283.48;;;;;;;1.98;100.00;100223.41;5026015;28;20024;-52
2023/12/17 09:15:15;;;;;;;440.33;289.45;;;;;;;2.07;100.00;100221.44;5025427;28;20033;-53
2023/12/17 09:17:42;;;;;;;446.83;288.63;;;;;;;2.21;100.00;100224.94;5026575;28;20239;-54
2023/12/17 09:20:08;;;;;;;528.45;286.13;;;;;;;2.27;100.00;100228.69;5026897;28;20041;-55
2023/12/17 09:22:33;;;;;;;454.13;285.25;;;;;;;2.57;100.00;100224.66;5024384;28;20538;-53
2023/12/17 09:24:59;;;;;;;577.78;298.27;;;;;;;2.57;100.00;100222.09;5025124;28;20025;-53
2023/12/17 09:27:24;;;;;;;422.30;287.90;;;;;;;2.64;100.00;100220.84;5025954;28;20622;-53
2023/12/17 09:29:50;;;;;;;457.40;286.15;;;;;;;2.83;100.00;100220.31;5024384;28;20485;-53
2023/12/17 09:32:15;;;;;;;458.98;292.08;;;;;;;3.14;100.00;100216.22;5023920;28;20432;-52
2023/12/17 09:34:40;;;;;;;450.75;296.17;;;;;;;3.31;100.00;100213.81;5025834;28;20045;-55
2023/12/17 09:37:06;;;;;;;576.50;306.55;;;;;;;3.14;100.00;100216.22;5025376;28;20045;-53
2023/12/17 09:39:31;;;;;;;505.48;300.80;;;;;;;3.10;100.00;100220.28;5007459;28;20139;-53
2023/12/17 09:41:57;;;;;;;529.80;310.27;;;;;;;3.32;100.00;100221.63;5024030;28;20092;-53
2023/12/17 09:44:23;;;;;;;453.13;300.13;;;;;;;3.39;100.00;100221.19;5023401;28;20147;-53
2023/12/17 09:46:49;;;;;;;485.90;307.08;;;;;;;3.62;100.00;100214.00;5025996;28;20034;-53
2023/12/17 09:49:14;;;;;;;523.50;313.52;;;;;;;3.63;100.00;100220.94;5025282;28;20030;-53
2023/12/17 09:51:45;;;;;;;479.13;302.58;;;;;;;3.75;100.00;100212.19;5024902;28;20406;-53
2023/12/17 09:54:11;;;;;;;559.40;303.88;;;;;;;3.94;100.00;100205.53;5022845;28;20021;-53
2023/12/17 09:56:37;;;;;;;497.02;302.30;;;;;;;4.23;100.00;100202.09;5022306;28;20048;-52
2023/12/17 09:59:02;;;;;;;656.38;310.98;;;;;;;4.16;100.00;100194.81;5024108;28;20017;-52
2023/12/17 10:01:27;;;;;;;487.27;311.80;;;;;;;4.52;100.00;100187.41;5023003;28;20041;-53
2023/12/17 10:03:53;;;;;;;493.45;315.73;;;;;;;4.63;100.00;100177.69;5006993;28;20026;-51
2023/12/17 10:06:19;;;;;;;496.88;306.42;;;;;;;4.27;100.00;100165.38;5022387;28;20505;-53
2023/12/17 10:08:45;;;;;;;481.42;309.00;;;;;;;4.27;100.00;100160.25;5026715;28;20025;-54
2023/12/17 10:11:10;;;;;;;500.02;307.88;;;;;;;4.65;100.00;100162.31;5023812;28;20413;-53
2023/12/17 10:13:35;;;;;;;562.30;313.02;;;;;;;4.59;100.00;100164.53;5023901;28;20531;-52
2023/12/17 10:16:01;;;;;;;623.35;321.00;;;;;;;4.53;100.00;100165.13;5022897;28;20465;-52
2023/12/17 10:18:26;;;;;;;515.45;303.60;;;;;;;4.92;100.00;100156.91;5026770;28;20433;-53
2023/12/17 10:20:51;;;;;;;523.25;309.95;;;;;;;4.88;100.00;100144.66;5006581;28;20239;-53
2023/12/17 10:23:17;;;;;;;513.63;305.95;;;;;;;5.12;100.00;100144.22;5024729;28;20437;-51
2023/12/17 10:25:43;;;;;;;501.10;306.00;;;;;;;5.18;100.00;100139.34;5025045;28;20494;-53
2023/12/17 10:28:13;;;;;;;639.85;325.30;;;;;;;5.26;100.00;100143.22;5024664;28;20021;-52
2023/12/17 10:33:05;;;;;;;192.93;19.42;;;;;;;5.32;100.00;100142.69;5025586;28;20415;-54
2023/12/17 10:35:32;;;;;;;191.05;19.65;;;;;;;5.58;100.00;100136.31;5030848;28;20048;-54
2023/12/17 10:38:03;;;;;;;183.82;18.60;;;;;;;5.83;100.00;100131.50;5019386;28;20505;-53
2023/12/17 10:40:29;;;;;;;120.50;17.23;;;;;;;5.84;100.00;100133.25;5022188;28;20036;-54
2023/12/17 10:42:56;;;;;;;118.57;17.73;;;;;;;5.67;100.00;100135.88;5022602;28;20349;-53
2023/12/17 10:45:22;;;;;;;59.03;15.75;;;;;;;5.98;100.00;100131.38;5018271;28;20026;-56